createdAt,value
2022-12-25T00:00:47.767Z,7.4
2022-12-25T00:02:51.602Z,7.4
2022-12-25T00:07:01.913Z,7.4
2022-12-25T00:09:05.722Z,7.4
2022-12-25T00:11:09.539Z,7.4
2022-12-25T00:13:13.340Z,7.3
2022-12-25T00:15:17.147Z,7.3
2022-12-25T00:17:20.970Z,7.4
2022-12-25T00:19:24.772Z,7.5
2022-12-25T00:21:31.396Z,7.5
2022-12-25T00:23:35.236Z,7.5
2022-12-25T00:26:42.446Z,7.6
2022-12-25T00:28:46.245Z,7.7
2022-12-25T00:30:50.052Z,7.7
2022-12-25T00:35:00.547Z,7.8
2022-12-25T00:37:04.353Z,7.7
2022-12-25T00:39:08.153Z,7.8
2022-12-25T00:43:15.816Z,7.9
2022-12-25T00:47:23.566Z,7.9
2022-12-25T00:51:34.034Z,7.9
2022-12-25T00:53:37.887Z,8
2022-12-25T00:57:45.538Z,8
2022-12-25T00:59:49.376Z,8
2022-12-25T01:01:53.333Z,8
2022-12-25T01:03:59.837Z,8.1
2022-12-25T01:06:03.671Z,8.1
2022-12-25T01:08:07.517Z,8.2
2022-12-25T01:10:11.355Z,8.2
2022-12-25T01:12:15.211Z,8.2
2022-12-25T01:14:19.061Z,8.3
2022-12-25T01:16:22.975Z,8.4
2022-12-25T01:18:29.538Z,8.4
2022-12-25T01:20:33.386Z,8.4
2022-12-25T01:22:37.239Z,8.4
2022-12-25T01:23:40.548Z,8.5
2022-12-25T01:25:44.407Z,8.5
2022-12-25T01:27:48.265Z,8.4
2022-12-25T01:29:52.090Z,8.5
2022-12-25T01:31:58.947Z,8.6
2022-12-25T01:34:02.723Z,8.5
2022-12-25T01:36:06.547Z,8.5
2022-12-25T01:38:10.384Z,8.5
2022-12-25T01:40:14.245Z,8.5
2022-12-25T01:42:18.142Z,8.6
2022-12-25T01:44:21.945Z,8.6
2022-12-25T01:50:36.302Z,8.5
2022-12-25T01:52:40.169Z,8.5
2022-12-25T01:54:44.028Z,8.5
2022-12-25T01:56:47.859Z,8.5
2022-12-25T02:00:58.463Z,8.6
2022-12-25T02:05:06.091Z,8.6
2022-12-25T02:07:09.909Z,8.6
2022-12-25T02:09:13.778Z,8.6
2022-12-25T02:11:17.644Z,8.7
2022-12-25T02:13:21.529Z,8.7
2022-12-25T02:15:28.199Z,8.8
2022-12-25T02:17:32.008Z,8.7
2022-12-25T02:19:35.868Z,8.8
2022-12-25T02:22:05.438Z,8.7
2022-12-25T02:24:09.299Z,8.7
2022-12-25T02:26:13.160Z,8.7
2022-12-25T02:30:23.674Z,8.6
2022-12-25T02:32:27.536Z,8.5
2022-12-25T02:34:31.396Z,8.5
2022-12-25T02:36:35.232Z,8.5
2022-12-25T02:40:42.984Z,8.5
2022-12-25T02:42:49.650Z,8.5
2022-12-25T02:44:53.505Z,8.5
2022-12-25T02:46:57.368Z,8.5
2022-12-25T02:49:01.211Z,8.4
2022-12-25T02:51:05.113Z,8.4
2022-12-25T02:53:08.940Z,8.4
2022-12-25T02:55:12.794Z,8.4
2022-12-25T02:57:19.446Z,8.5
2022-12-25T02:59:23.339Z,8.4
2022-12-25T03:05:34.878Z,8.4
2022-12-25T03:07:38.713Z,8.4
2022-12-25T03:09:42.719Z,8.4
2022-12-25T03:11:49.253Z,8.4
2022-12-25T03:13:53.118Z,8.5
2022-12-25T03:15:56.958Z,8.4
2022-12-25T03:17:00.383Z,8.5
2022-12-25T03:19:04.199Z,8.5
2022-12-25T03:21:08.008Z,8.5
2022-12-25T03:23:11.878Z,8.6
2022-12-25T03:25:18.521Z,8.6
2022-12-25T03:29:31.629Z,8.6
2022-12-25T03:33:44.947Z,8.6
2022-12-25T03:35:37.770Z,8.6
2022-12-25T03:37:41.638Z,8.7
2022-12-25T03:39:48.321Z,8.7
2022-12-25T03:41:52.198Z,8.8
2022-12-25T03:43:56.021Z,8.8
2022-12-25T03:46:00.002Z,8.8
2022-12-25T03:48:03.803Z,8.8
2022-12-25T03:50:07.603Z,8.8
2022-12-25T03:58:25.840Z,8.8
2022-12-25T04:00:29.690Z,8.7
2022-12-25T04:02:33.763Z,8.7
2022-12-25T04:04:37.388Z,8.6
2022-12-25T04:06:41.247Z,8.7
2022-12-25T04:08:47.920Z,8.7
2022-12-25T04:10:51.781Z,8.7
2022-12-25T04:12:55.638Z,8.8
2022-12-25T04:13:58.957Z,8.9
2022-12-25T04:16:02.922Z,8.9
2022-12-25T04:18:06.715Z,8.9
2022-12-25T04:20:10.551Z,8.9
2022-12-25T04:22:17.239Z,8.8
2022-12-25T04:24:21.085Z,8.9
2022-12-25T04:26:24.933Z,8.9
2022-12-25T04:28:28.792Z,8.9
2022-12-25T04:30:32.669Z,8.9
2022-12-25T04:36:47.040Z,9
2022-12-25T04:40:54.774Z,8.9
2022-12-25T04:42:58.602Z,9
2022-12-25T04:45:02.492Z,9
2022-12-25T04:47:11.114Z,8.9
2022-12-25T04:49:10.203Z,8.9
2022-12-25T04:51:16.889Z,8.9
2022-12-25T04:53:20.736Z,8.9
2022-12-25T04:55:24.589Z,8.9
2022-12-25T04:57:28.468Z,9
2022-12-25T05:03:40.322Z,9
2022-12-25T05:05:46.710Z,9
2022-12-25T05:07:50.566Z,9
2022-12-25T05:09:54.444Z,9
2022-12-25T05:10:57.779Z,9
2022-12-25T05:13:01.657Z,9
2022-12-25T05:15:05.505Z,9
2022-12-25T05:17:09.370Z,9
2022-12-25T05:19:16.086Z,9
2022-12-25T05:21:21.442Z,9
2022-12-25T05:23:25.254Z,9
2022-12-25T05:25:29.152Z,9
2022-12-25T05:27:33.013Z,9
2022-12-25T05:29:36.889Z,9
2022-12-25T05:31:40.787Z,9
2022-12-25T05:33:47.403Z,8.9
2022-12-25T05:35:51.288Z,8.9
2022-12-25T05:37:55.164Z,8.9
2022-12-25T05:39:59.028Z,8.9
2022-12-25T05:42:02.884Z,8.9
2022-12-25T05:44:06.760Z,8.8
2022-12-25T05:46:10.711Z,8.7
2022-12-25T05:48:17.298Z,8.7
2022-12-25T05:50:21.154Z,8.7
2022-12-25T05:54:28.901Z,8.7
2022-12-25T05:56:32.775Z,8.8
2022-12-25T05:58:36.621Z,8.7
2022-12-25T06:00:40.466Z,8.7
2022-12-25T06:02:47.400Z,8.6
2022-12-25T06:04:51.014Z,8.6
2022-12-25T06:06:54.863Z,8.6
2022-12-25T06:09:18.619Z,8.5
2022-12-25T06:13:26.326Z,8.5
2022-12-25T06:15:32.987Z,8.5
2022-12-25T06:17:36.855Z,8.5
2022-12-25T06:19:40.690Z,8.5
2022-12-25T06:21:44.569Z,8.5
2022-12-25T06:23:48.501Z,8.4
2022-12-25T06:25:52.254Z,8.4
2022-12-25T06:27:56.126Z,8.4
2022-12-25T06:30:02.780Z,8.4
2022-12-25T06:32:06.678Z,8.4
2022-12-25T06:34:10.470Z,8.5
2022-12-25T06:36:14.315Z,8.5
2022-12-25T06:38:18.170Z,8.5
2022-12-25T06:40:22.027Z,8.4
2022-12-25T06:46:36.384Z,8.3
2022-12-25T06:48:40.242Z,8.3
2022-12-25T06:50:44.099Z,8.2
2022-12-25T06:52:47.932Z,8.2
2022-12-25T06:56:55.673Z,8.1
2022-12-25T06:59:02.325Z,8
2022-12-25T07:01:06.291Z,8.1
2022-12-25T07:03:10.188Z,8.1
2022-12-25T07:04:13.447Z,8.1
2022-12-25T07:06:17.295Z,8
2022-12-25T07:08:21.136Z,8.1
2022-12-25T07:10:24.969Z,8.1
2022-12-25T07:12:31.658Z,8.1
2022-12-25T07:14:35.500Z,8.1
2022-12-25T07:20:47.010Z,8.1
2022-12-25T07:22:50.877Z,8.1
2022-12-25T07:24:54.724Z,8.1
2022-12-25T07:29:05.204Z,8.2
2022-12-25T07:31:09.090Z,8.2
2022-12-25T07:33:12.922Z,8.3
2022-12-25T07:35:16.773Z,8.2
2022-12-25T07:37:20.617Z,8.3
2022-12-25T07:39:24.508Z,8.3
2022-12-25T07:41:31.268Z,8.4
2022-12-25T07:43:35.006Z,8.3
2022-12-25T07:45:38.878Z,8.4
2022-12-25T07:47:42.705Z,8.4
2022-12-25T07:53:54.399Z,8.4
2022-12-25T07:58:07.233Z,8.4
2022-12-25T08:01:12.240Z,8.4
2022-12-25T08:03:16.123Z,8.4
2022-12-25T08:05:19.850Z,8.4
2022-12-25T08:07:23.676Z,8.4
2022-12-25T08:09:30.397Z,8.4
2022-12-25T08:11:34.230Z,8.4
2022-12-25T08:13:38.106Z,8.4
2022-12-25T08:15:41.958Z,8.4
2022-12-25T08:17:45.827Z,8.4
2022-12-25T08:19:49.691Z,8.4
2022-12-25T08:21:53.534Z,8.4
2022-12-25T08:24:00.204Z,8.4
2022-12-25T08:26:05.060Z,8.4
2022-12-25T08:28:07.938Z,8.4
2022-12-25T08:30:11.806Z,8.4
2022-12-25T08:32:15.697Z,8.4
2022-12-25T08:34:19.553Z,8.4
2022-12-25T08:36:23.441Z,8.4
2022-12-25T08:38:30.117Z,8.5
2022-12-25T08:40:33.984Z,8.5
2022-12-25T08:44:41.687Z,8.5
2022-12-25T08:46:45.679Z,8.5
2022-12-25T08:48:49.401Z,8.5
2022-12-25T08:50:53.318Z,8.5
2022-12-25T08:53:00.031Z,8.3
2022-12-25T08:55:03.852Z,8.3
2022-12-25T08:57:07.729Z,8.3
2022-12-25T09:00:14.928Z,8.3
2022-12-25T09:04:22.662Z,8.2
2022-12-25T09:06:29.318Z,8.2
2022-12-25T09:08:33.177Z,8.3
2022-12-25T09:10:37.029Z,8.3
2022-12-25T09:12:40.875Z,8.3
2022-12-25T09:14:44.772Z,8.3
2022-12-25T09:16:48.627Z,8.3
2022-12-25T09:20:59.131Z,8.3
2022-12-25T09:23:06.064Z,8.3
2022-12-25T09:25:06.877Z,8.4
2022-12-25T09:27:10.746Z,8.3
2022-12-25T09:29:14.601Z,8.4
2022-12-25T09:31:18.597Z,8.4
2022-12-25T09:33:22.427Z,8.4
2022-12-25T09:35:29.119Z,8.4
2022-12-25T09:37:32.972Z,8.4
2022-12-25T09:39:42.202Z,8.4
2022-12-25T09:43:44.572Z,8.4
2022-12-25T09:45:48.448Z,8.4
2022-12-25T09:49:58.970Z,8.5
2022-12-25T09:52:02.812Z,8.5
2022-12-25T09:54:06.680Z,8.5
2022-12-25T09:56:30.653Z,8.5
2022-12-25T09:58:34.513Z,8.5
2022-12-25T10:00:38.402Z,8.6
2022-12-25T10:02:45.393Z,8.6
2022-12-25T10:04:48.933Z,8.6
2022-12-25T10:06:52.805Z,8.6
2022-12-25T10:08:56.649Z,8.7
2022-12-25T10:11:00.523Z,8.7
2022-12-25T10:13:04.471Z,8.7
2022-12-25T10:15:08.269Z,8.7
2022-12-25T10:17:14.948Z,8.7
2022-12-25T10:19:18.794Z,8.7
2022-12-25T10:21:22.696Z,8.6
2022-12-25T10:23:26.558Z,8.7
2022-12-25T10:25:30.403Z,8.6
2022-12-25T10:27:34.271Z,8.6
2022-12-25T10:29:38.140Z,8.6
2022-12-25T10:31:44.812Z,8.7
2022-12-25T10:33:48.705Z,8.6
2022-12-25T10:35:52.561Z,8.6
2022-12-25T10:37:56.403Z,8.7
2022-12-25T10:40:00.311Z,8.6
2022-12-25T10:42:04.193Z,8.7
2022-12-25T10:44:08.020Z,8.7
2022-12-25T10:46:14.751Z,8.7
2022-12-25T10:48:18.561Z,8.7
2022-12-25T10:50:22.533Z,8.7
2022-12-25T10:51:25.880Z,8.6
2022-12-25T10:53:29.734Z,8.6
2022-12-25T10:55:33.659Z,8.7
2022-12-25T10:57:37.446Z,8.6
2022-12-25T10:59:44.143Z,8.7
2022-12-25T11:01:51.096Z,8.7
2022-12-25T11:03:51.926Z,8.7
2022-12-25T11:05:55.719Z,8.7
2022-12-25T11:07:59.605Z,8.7
2022-12-25T11:10:05.571Z,8.7
2022-12-25T11:12:07.360Z,8.7
2022-12-25T11:14:14.010Z,8.7
2022-12-25T11:20:27.069Z,8.7
2022-12-25T11:22:30.948Z,8.7
2022-12-25T11:24:34.780Z,8.7
2022-12-25T11:26:38.711Z,8.7
2022-12-25T11:30:49.218Z,8.6
2022-12-25T11:37:00.833Z,8.6
2022-12-25T11:41:08.533Z,8.6
2022-12-25T11:45:19.109Z,8.6
2022-12-25T11:47:22.953Z,8.6
2022-12-25T11:48:26.303Z,8.6
2022-12-25T11:50:30.172Z,8.7
2022-12-25T11:52:34.023Z,8.6
2022-12-25T11:54:37.888Z,8.7
2022-12-25T11:56:44.556Z,8.6
2022-12-25T11:58:48.424Z,8.6
2022-12-25T12:00:52.268Z,8.6
2022-12-25T12:02:56.225Z,8.6
2022-12-25T12:05:00.011Z,8.6
2022-12-25T12:07:03.883Z,8.6
2022-12-25T12:09:07.739Z,8.6
2022-12-25T12:11:14.396Z,8.6
2022-12-25T12:13:18.261Z,8.7
2022-12-25T12:15:22.145Z,8.6
2022-12-25T12:17:26.007Z,8.6
2022-12-25T12:19:29.855Z,8.6
2022-12-25T12:23:37.597Z,8.6
2022-12-25T12:25:44.284Z,8.6
2022-12-25T12:27:48.133Z,8.6
2022-12-25T12:29:51.973Z,8.6
2022-12-25T12:31:55.897Z,8.6
2022-12-25T12:33:59.734Z,8.7
2022-12-25T12:36:03.592Z,8.7
2022-12-25T12:38:07.445Z,8.7
2022-12-25T12:40:14.147Z,8.6
2022-12-25T12:42:18.053Z,8.7
2022-12-25T12:44:21.855Z,8.6
2022-12-25T12:47:29.052Z,8.6
2022-12-25T12:51:36.789Z,8.7
2022-12-25T12:53:43.460Z,8.7
2022-12-25T12:55:47.453Z,8.7
2022-12-25T12:57:51.307Z,8.7
2022-12-25T12:59:55.190Z,8.7
2022-12-25T13:01:59.284Z,8.7
2022-12-25T13:04:03.011Z,8.7
2022-12-25T13:06:06.778Z,8.7
2022-12-25T13:08:13.425Z,8.7
2022-12-25T13:10:17.306Z,8.7
2022-12-25T13:12:21.144Z,8.7
2022-12-25T13:14:25.054Z,8.7
2022-12-25T13:18:32.743Z,8.7
2022-12-25T13:20:36.629Z,8.7
2022-12-25T13:22:47.722Z,8.7
2022-12-25T13:33:03.548Z,8.7
2022-12-25T13:35:07.367Z,8.8
2022-12-25T13:37:14.088Z,8.7
2022-12-25T13:39:17.930Z,8.7
2022-12-25T13:41:21.828Z,8.8
2022-12-25T13:43:45.527Z,8.8
2022-12-25T13:47:55.747Z,8.7
2022-12-25T13:52:03.804Z,8.8
2022-12-25T13:56:11.539Z,8.8
2022-12-25T13:58:15.397Z,8.9
2022-12-25T14:00:19.259Z,8.9
2022-12-25T14:02:23.292Z,8.9
2022-12-25T14:04:29.813Z,8.9
2022-12-25T14:06:33.678Z,8.9
2022-12-25T14:08:37.520Z,8.9
2022-12-25T14:10:41.432Z,8.9
2022-12-25T14:12:45.280Z,8.9
2022-12-25T14:14:49.143Z,8.9
2022-12-25T14:18:59.659Z,8.9
2022-12-25T14:21:03.552Z,8.8
2022-12-25T14:23:07.409Z,8.8
2022-12-25T14:25:11.253Z,8.9
2022-12-25T14:27:15.154Z,8.9
2022-12-25T14:29:21.392Z,8.8
2022-12-25T14:31:22.960Z,8.9
2022-12-25T14:33:29.571Z,8.9
2022-12-25T14:35:33.413Z,8.8
2022-12-25T14:37:37.294Z,8.8
2022-12-25T14:38:40.613Z,8.8
2022-12-25T14:40:44.487Z,8.8
2022-12-25T14:42:48.388Z,8.8
2022-12-25T14:44:52.219Z,8.8
2022-12-25T14:46:58.916Z,8.8
2022-12-25T14:49:02.789Z,8.8
2022-12-25T14:51:06.650Z,8.8
2022-12-25T14:53:10.531Z,8.8
2022-12-25T14:55:14.383Z,8.8
2022-12-25T14:57:18.328Z,8.8
2022-12-25T14:59:22.124Z,8.8
2022-12-25T15:01:28.868Z,8.8
2022-12-25T15:03:32.756Z,8.8
2022-12-25T15:05:36.564Z,8.8
2022-12-25T15:07:40.411Z,8.8
2022-12-25T15:09:44.289Z,8.8
2022-12-25T15:11:48.153Z,8.7
2022-12-25T15:13:52.020Z,8.8
2022-12-25T15:15:58.793Z,8.8
2022-12-25T15:18:02.585Z,8.8
2022-12-25T15:20:06.458Z,8.8
2022-12-25T15:22:10.340Z,8.8
2022-12-25T15:24:14.184Z,8.8
2022-12-25T15:28:21.941Z,8.8
2022-12-25T15:30:28.612Z,8.8
2022-12-25T15:32:32.463Z,8.8
2022-12-25T15:34:36.369Z,8.8
2022-12-25T15:35:39.696Z,8.8
2022-12-25T15:37:43.569Z,8.7
2022-12-25T15:41:51.304Z,8.8
2022-12-25T15:43:58.021Z,8.8
2022-12-25T15:46:01.928Z,8.8
2022-12-25T15:50:09.613Z,8.8
2022-12-25T15:52:13.469Z,8.8
2022-12-25T16:00:31.756Z,8.8
2022-12-25T16:02:35.806Z,8.8
2022-12-25T16:04:39.540Z,8.8
2022-12-25T16:06:43.404Z,8.7
2022-12-25T16:08:47.268Z,8.7
2022-12-25T16:10:51.108Z,8.7
2022-12-25T16:12:57.844Z,8.7
2022-12-25T16:15:01.716Z,8.7
2022-12-25T16:17:05.592Z,8.7
2022-12-25T16:19:09.454Z,8.8
2022-12-25T16:21:13.318Z,8.8
2022-12-25T16:23:17.193Z,8.8
2022-12-25T16:25:21.071Z,8.7
2022-12-25T16:27:27.768Z,8.7
2022-12-25T16:31:35.593Z,8.8
2022-12-25T16:32:38.845Z,8.7
2022-12-25T16:36:46.630Z,8.7
2022-12-25T16:38:50.497Z,8.7
2022-12-25T16:40:57.193Z,8.7
2022-12-25T16:43:01.044Z,8.7
2022-12-25T16:47:08.793Z,8.6
2022-12-25T16:49:12.661Z,8.6
2022-12-25T16:51:16.520Z,8.6
2022-12-25T16:53:20.401Z,8.5
2022-12-25T16:55:30.155Z,8.5
2022-12-25T17:01:38.776Z,8.5
2022-12-25T17:05:46.451Z,8.6
2022-12-25T17:07:50.322Z,8.6
2022-12-25T17:09:56.998Z,8.6
2022-12-25T17:12:00.842Z,8.5
2022-12-25T17:16:10.182Z,8.6
2022-12-25T17:18:13.925Z,8.6
2022-12-25T17:20:17.808Z,8.6
2022-12-25T17:22:21.664Z,8.6
2022-12-25T17:24:28.341Z,8.6
2022-12-25T17:28:36.093Z,8.6
2022-12-25T17:31:05.700Z,8.6
2022-12-25T17:33:09.567Z,8.5
2022-12-25T17:37:20.114Z,8.6
2022-12-25T17:41:27.789Z,8.5
2022-12-25T17:43:31.664Z,8.5
2022-12-25T17:45:35.570Z,8.5
2022-12-25T17:47:39.396Z,8.6
2022-12-25T17:51:50.019Z,8.5
2022-12-25T17:53:53.809Z,8.5
2022-12-25T17:55:57.705Z,8.5
2022-12-25T18:00:05.374Z,8.5
2022-12-25T18:06:19.799Z,8.4
2022-12-25T18:08:23.636Z,8.4
2022-12-25T18:10:27.504Z,8.4
2022-12-25T18:18:47.979Z,8.4
2022-12-25T18:20:49.652Z,8.4
2022-12-25T18:24:57.336Z,8.5
2022-12-25T18:26:00.656Z,8.4
2022-12-25T18:28:04.523Z,8.4
2022-12-25T18:30:08.386Z,8.4
2022-12-25T18:32:12.250Z,8.4
2022-12-25T18:34:18.892Z,8.4
2022-12-25T18:36:22.755Z,8.4
2022-12-25T18:38:26.587Z,8.4
2022-12-25T18:40:30.454Z,8.4
2022-12-25T18:42:34.314Z,8.4
2022-12-25T18:44:38.174Z,8.4
2022-12-25T18:46:42.040Z,8.4
2022-12-25T18:48:48.712Z,8.4
2022-12-25T18:50:52.584Z,8.4
2022-12-25T18:52:56.417Z,8.4
2022-12-25T18:55:00.308Z,8.4
2022-12-25T18:57:07.300Z,8.4
2022-12-25T18:59:08.003Z,8.4
2022-12-25T19:01:11.964Z,8.4
2022-12-25T19:03:18.626Z,8.3
2022-12-25T19:05:22.407Z,8.4
2022-12-25T19:07:26.241Z,8.4
2022-12-25T19:09:30.107Z,8.3
2022-12-25T19:13:37.855Z,8.3
2022-12-25T19:15:41.689Z,8.3
2022-12-25T19:17:48.374Z,8.3
2022-12-25T19:19:52.216Z,8.4
2022-12-25T19:21:56.082Z,8.4
2022-12-25T19:27:07.145Z,8.4
2022-12-25T19:29:11.007Z,8.3
2022-12-25T19:31:17.779Z,8.4
2022-12-25T19:33:21.559Z,8.4
2022-12-25T19:35:25.401Z,8.4
2022-12-25T19:37:29.255Z,8.3
2022-12-25T19:39:33.122Z,8.3
2022-12-25T19:41:36.983Z,8.3
2022-12-25T19:43:40.825Z,8.4
2022-12-25T19:45:47.528Z,8.3
2022-12-25T19:47:51.364Z,8.3
2022-12-25T19:49:59.574Z,8.3
2022-12-25T19:51:59.100Z,8.3
2022-12-25T19:56:06.788Z,8.3
2022-12-25T19:58:10.633Z,8.3
2022-12-25T20:00:17.317Z,8.3
2022-12-25T20:02:21.279Z,8.4
2022-12-25T20:06:28.902Z,8.4
2022-12-25T20:10:36.594Z,8.4
2022-12-25T20:14:47.115Z,8.4
2022-12-25T20:19:58.166Z,8.4
2022-12-25T20:22:02.010Z,8.4
2022-12-25T20:24:05.875Z,8.4
2022-12-25T20:26:09.739Z,8.4
2022-12-25T20:28:16.405Z,8.4
2022-12-25T20:30:20.267Z,8.4
2022-12-25T20:32:24.214Z,8.4
2022-12-25T20:34:27.974Z,8.4
2022-12-25T20:36:36.747Z,8.4
2022-12-25T20:38:35.687Z,8.4
2022-12-25T20:41:00.441Z,8.4
2022-12-25T20:42:46.200Z,8.4
2022-12-25T20:44:50.088Z,8.4
2022-12-25T20:46:53.953Z,8.5
2022-12-25T20:48:57.781Z,8.4
2022-12-25T20:51:01.666Z,8.4
2022-12-25T20:53:05.495Z,8.4
2022-12-25T20:55:09.519Z,8.4
2022-12-25T20:57:16.066Z,8.4
2022-12-25T20:59:19.931Z,8.4
2022-12-25T21:01:23.950Z,8.4
2022-12-25T21:03:27.916Z,8.5
2022-12-25T21:05:31.624Z,8.5
2022-12-25T21:07:35.544Z,8.5
2022-12-25T21:09:39.349Z,8.5
2022-12-25T21:11:46.011Z,8.5
2022-12-25T21:13:49.880Z,8.5
2022-12-25T21:15:53.749Z,8.5
2022-12-25T21:18:23.367Z,8.5
2022-12-25T21:20:27.242Z,8.5
2022-12-25T21:22:31.112Z,8.6
2022-12-25T21:28:45.510Z,8.5
2022-12-25T21:30:49.606Z,8.5
2022-12-25T21:34:57.123Z,8.5
2022-12-25T21:39:07.659Z,8.5
2022-12-25T21:41:11.533Z,8.6
2022-12-25T21:43:15.389Z,8.5
2022-12-25T21:45:19.249Z,8.5
2022-12-25T21:49:26.983Z,8.5
2022-12-25T21:53:37.515Z,8.5
2022-12-25T21:55:41.365Z,8.6
2022-12-25T21:57:45.246Z,8.6
2022-12-25T21:59:49.114Z,8.6
2022-12-25T22:01:53.105Z,8.5
2022-12-25T22:03:56.857Z,8.6
2022-12-25T22:06:00.705Z,8.6
2022-12-25T22:08:07.388Z,8.6
2022-12-25T22:10:11.260Z,8.6
2022-12-25T22:12:15.101Z,8.6
2022-12-25T22:13:18.500Z,8.7
2022-12-25T22:15:22.298Z,8.6
2022-12-25T22:17:26.412Z,8.7
2022-12-25T22:21:36.988Z,8.7
2022-12-25T22:27:48.587Z,8.7
2022-12-25T22:31:56.332Z,8.8
2022-12-25T22:36:06.878Z,8.7
2022-12-25T22:38:10.781Z,8.8
2022-12-25T22:40:14.652Z,8.7
2022-12-25T22:42:18.468Z,8.8
2022-12-25T22:44:22.344Z,8.8
2022-12-25T22:46:26.251Z,8.8
2022-12-25T22:48:30.099Z,8.8
2022-12-25T22:50:36.834Z,8.8
2022-12-25T22:52:40.628Z,8.8
2022-12-25T22:54:44.509Z,8.8
2022-12-25T22:56:48.388Z,8.8
2022-12-25T22:58:52.255Z,8.9
2022-12-25T23:00:56.127Z,8.9
2022-12-25T23:03:00.244Z,8.8
2022-12-25T23:07:10.549Z,8.9
2022-12-25T23:10:17.739Z,8.8
2022-12-25T23:12:23.090Z,8.8
2022-12-25T23:14:26.930Z,8.8
2022-12-25T23:16:30.913Z,8.8
2022-12-25T23:18:37.473Z,8.8
2022-12-25T23:20:41.359Z,8.8
2022-12-25T23:22:45.225Z,8.8
2022-12-25T23:24:49.130Z,8.8
2022-12-25T23:26:52.976Z,8.9
2022-12-25T23:28:56.854Z,8.9
2022-12-25T23:31:00.770Z,8.9
2022-12-25T23:33:07.391Z,8.9
2022-12-25T23:35:11.259Z,8.9
2022-12-25T23:39:19.004Z,8.9
2022-12-25T23:41:23.006Z,8.9
2022-12-25T23:43:26.763Z,8.9
2022-12-25T23:45:30.609Z,8.9
2022-12-25T23:47:37.302Z,9
2022-12-25T23:53:48.955Z,8.9
2022-12-25T23:55:55.862Z,9
2022-12-25T23:57:56.716Z,9
